sensor_id;sensor_type;location;lat;lon;timestamp;pressure;altitude;pressure_sealevel;temperature;humidity
60976;BME280;46849;48.154;17.042;2022-11-30T00:02:12;99367.91;;;1.26;100.00
60976;BME280;46849;48.154;17.042;2022-11-30T00:04:56;99374.31;;;1.06;100.00
60976;BME280;46849;48.154;17.042;2022-11-30T00:07:42;99370.66;;;1.16;100.00
60976;BME280;46849;48.154;17.042;2022-11-30T00:10:27;99363.47;;;1.31;100.00
60976;BME280;46849;48.154;17.042;2022-11-30T00:13:12;99367.44;;;1.47;100.00
60976;BME280;46849;48.154;17.042;2022-11-30T00:15:59;99368.53;;;1.35;100.00
60976;BME280;46849;48.154;17.042;2022-11-30T00:18:44;99381.50;;;1.32;100.00
60976;BME280;46849;48.154;17.042;2022-11-30T00:21:29;99379.03;;;1.28;100.00
60976;BME280;46849;48.154;17.042;2022-11-30T00:24:14;99371.25;;;1.29;100.00
60976;BME280;46849;48.154;17.042;2022-11-30T00:27:00;99380.72;;;1.30;100.00
60976;BME280;46849;48.154;17.042;2022-11-30T00:29:44;99383.31;;;1.30;100.00
60976;BME280;46849;48.154;17.042;2022-11-30T00:32:30;99386.97;;;1.18;100.00
60976;BME280;46849;48.154;17.042;2022-11-30T00:35:15;99394.81;;;1.14;100.00
60976;BME280;46849;48.154;17.042;2022-11-30T00:38:01;99388.72;;;1.16;100.00
60976;BME280;46849;48.154;17.042;2022-11-30T00:40:46;99389.72;;;1.10;100.00
60976;BME280;46849;48.154;17.042;2022-11-30T00:43:31;99394.75;;;1.17;100.00
60976;BME280;46849;48.154;17.042;2022-11-30T00:46:16;99399.41;;;0.99;100.00
60976;BME280;46849;48.154;17.042;2022-11-30T00:49:01;99392.66;;;0.90;100.00
60976;BME280;46849;48.154;17.042;2022-11-30T00:51:45;99390.63;;;1.06;100.00
60976;BME280;46849;48.154;17.042;2022-11-30T00:54:30;99383.84;;;1.02;100.00
60976;BME280;46849;48.154;17.042;2022-11-30T00:57:15;99382.72;;;1.16;100.00
60976;BME280;46849;48.154;17.042;2022-11-30T01:00:00;99384.69;;;1.04;100.00
60976;BME280;46849;48.154;17.042;2022-11-30T01:02:44;99385.16;;;1.23;100.00
60976;BME280;46849;48.154;17.042;2022-11-30T01:05:31;99389.72;;;1.10;100.00
60976;BME280;46849;48.154;17.042;2022-11-30T01:08:16;99387.13;;;1.10;100.00
60976;BME280;46849;48.154;17.042;2022-11-30T01:11:06;99393.16;;;1.09;100.00
60976;BME280;46849;48.154;17.042;2022-11-30T01:13:52;99384.75;;;1.00;100.00
60976;BME280;46849;48.154;17.042;2022-11-30T01:16:38;99384.69;;;1.04;100.00
60976;BME280;46849;48.154;17.042;2022-11-30T01:19:22;99387.97;;;1.13;100.00
60976;BME280;46849;48.154;17.042;2022-11-30T01:22:07;99381.69;;;1.25;100.00
60976;BME280;46849;48.154;17.042;2022-11-30T01:24:51;99391.06;;;1.30;100.00
60976;BME280;46849;48.154;17.042;2022-11-30T01:27:36;99387.66;;;1.27;100.00
60976;BME280;46849;48.154;17.042;2022-11-30T01:30:20;99384.06;;;1.34;100.00
60976;BME280;46849;48.154;17.042;2022-11-30T01:33:05;99389.56;;;1.18;100.00
60976;BME280;46849;48.154;17.042;2022-11-30T01:36:00;99381.31;;;0.99;100.00
60976;BME280;46849;48.154;17.042;2022-11-30T01:38:49;99388.94;;;1.05;100.00
60976;BME280;46849;48.154;17.042;2022-11-30T01:41:35;99377.44;;;1.22;100.00
60976;BME280;46849;48.154;17.042;2022-11-30T01:47:10;99385.72;;;0.94;100.00
60976;BME280;46849;48.154;17.042;2022-11-30T01:50:25;99388.28;;;0.94;100.00
60976;BME280;46849;48.154;17.042;2022-11-30T01:53:11;99377.78;;;1.03;100.00
60976;BME280;46849;48.154;17.042;2022-11-30T01:55:56;99382.28;;;0.93;100.00
60976;BME280;46849;48.154;17.042;2022-11-30T01:58:41;99378.38;;;1.18;100.00
60976;BME280;46849;48.154;17.042;2022-11-30T02:01:26;99379.38;;;1.10;100.00
60976;BME280;46849;48.154;17.042;2022-11-30T02:04:21;99375.25;;;1.02;100.00
60976;BME280;46849;48.154;17.042;2022-11-30T02:07:08;99378.03;;;0.91;100.00
60976;BME280;46849;48.154;17.042;2022-11-30T02:09:52;99376.56;;;0.77;100.00
60976;BME280;46849;48.154;17.042;2022-11-30T02:25:24;99391.31;;;1.16;100.00
60976;BME280;46849;48.154;17.042;2022-11-30T02:31:30;99380.66;;;1.33;100.00
60976;BME280;46849;48.154;17.042;2022-11-30T02:34:19;99375.28;;;1.00;100.00
60976;BME280;46849;48.154;17.042;2022-11-30T02:37:08;99371.78;;;1.04;100.00
60976;BME280;46849;48.154;17.042;2022-11-30T02:39:56;99376.25;;;0.94;100.00
60976;BME280;46849;48.154;17.042;2022-11-30T02:42:41;99376.00;;;1.07;100.00
60976;BME280;46849;48.154;17.042;2022-11-30T02:45:34;99372.38;;;1.17;100.00
60976;BME280;46849;48.154;17.042;2022-11-30T02:48:26;99367.16;;;1.20;100.00
60976;BME280;46849;48.154;17.042;2022-11-30T02:51:16;99366.19;;;1.25;100.00
60976;BME280;46849;48.154;17.042;2022-11-30T02:54:02;99366.34;;;1.17;100.00
60976;BME280;46849;48.154;17.042;2022-11-30T02:56:46;99373.28;;;1.15;100.00
60976;BME280;46849;48.154;17.042;2022-11-30T02:59:32;99367.19;;;1.19;100.00
60976;BME280;46849;48.154;17.042;2022-11-30T03:02:16;99375.16;;;1.06;100.00
60976;BME280;46849;48.154;17.042;2022-11-30T03:05:01;99378.75;;;0.99;100.00
60976;BME280;46849;48.154;17.042;2022-11-30T03:07:47;99377.09;;;0.95;100.00
60976;BME280;46849;48.154;17.042;2022-11-30T03:10:32;99386.72;;;0.85;100.00
60976;BME280;46849;48.154;17.042;2022-11-30T03:13:17;99389.97;;;0.96;100.00
60976;BME280;46849;48.154;17.042;2022-11-30T03:16:10;99384.81;;;0.95;100.00
60976;BME280;46849;48.154;17.042;2022-11-30T03:18:56;99392.28;;;1.10;100.00
60976;BME280;46849;48.154;17.042;2022-11-30T03:21:41;99395.03;;;1.03;100.00
60976;BME280;46849;48.154;17.042;2022-11-30T03:24:26;99400.88;;;1.13;100.00
60976;BME280;46849;48.154;17.042;2022-11-30T03:27:11;99397.56;;;1.04;100.00
60976;BME280;46849;48.154;17.042;2022-11-30T03:29:55;99393.88;;;1.16;100.00
60976;BME280;46849;48.154;17.042;2022-11-30T03:32:40;99392.34;;;1.07;100.00
60976;BME280;46849;48.154;17.042;2022-11-30T03:35:24;99397.63;;;1.03;100.00
60976;BME280;46849;48.154;17.042;2022-11-30T03:38:09;99400.78;;;1.17;100.00
60976;BME280;46849;48.154;17.042;2022-11-30T03:41:08;99392.72;;;1.33;100.00
60976;BME280;46849;48.154;17.042;2022-11-30T03:43:54;99395.22;;;1.36;100.00
60976;BME280;46849;48.154;17.042;2022-11-30T03:46:39;99389.75;;;1.52;100.00
60976;BME280;46849;48.154;17.042;2022-11-30T03:49:23;99387.13;;;1.93;100.00
60976;BME280;46849;48.154;17.042;2022-11-30T03:52:08;99393.97;;;1.95;100.00
60976;BME280;46849;48.154;17.042;2022-11-30T03:54:52;99388.03;;;1.90;100.00
60976;BME280;46849;48.154;17.042;2022-11-30T03:57:37;99387.44;;;1.79;100.00
60976;BME280;46849;48.154;17.042;2022-11-30T04:00:21;99394.41;;;1.75;100.00
60976;BME280;46849;48.154;17.042;2022-11-30T04:03:06;99386.28;;;1.53;100.00
60976;BME280;46849;48.154;17.042;2022-11-30T04:05:51;99381.16;;;1.51;100.00
60976;BME280;46849;48.154;17.042;2022-11-30T04:08:36;99393.09;;;1.55;100.00
60976;BME280;46849;48.154;17.042;2022-11-30T04:11:21;99395.53;;;1.63;100.00
60976;BME280;46849;48.154;17.042;2022-11-30T04:14:05;99396.94;;;1.77;100.00
60976;BME280;46849;48.154;17.042;2022-11-30T04:16:50;99393.00;;;1.60;100.00
60976;BME280;46849;48.154;17.042;2022-11-30T04:19:35;99394.88;;;1.53;100.00
60976;BME280;46849;48.154;17.042;2022-11-30T04:22:21;99385.59;;;1.44;100.00
60976;BME280;46849;48.154;17.042;2022-11-30T04:25:06;99392.38;;;1.48;100.00
60976;BME280;46849;48.154;17.042;2022-11-30T04:27:50;99390.56;;;1.54;100.00
60976;BME280;46849;48.154;17.042;2022-11-30T04:30:37;99391.16;;;1.65;100.00
60976;BME280;46849;48.154;17.042;2022-11-30T04:33:22;99389.38;;;1.69;99.95
60976;BME280;46849;48.154;17.042;2022-11-30T04:36:17;99396.19;;;1.71;100.00
60976;BME280;46849;48.154;17.042;2022-11-30T04:39:03;99392.59;;;1.79;98.72
60976;BME280;46849;48.154;17.042;2022-11-30T04:41:48;99387.47;;;1.77;98.72
60976;BME280;46849;48.154;17.042;2022-11-30T04:44:32;99395.97;;;1.82;98.13
60976;BME280;46849;48.154;17.042;2022-11-30T04:47:17;99396.94;;;1.77;97.70
60976;BME280;46849;48.154;17.042;2022-11-30T04:50:03;99401.19;;;1.81;97.26
60976;BME280;46849;48.154;17.042;2022-11-30T04:52:48;99400.41;;;1.77;96.79
60976;BME280;46849;48.154;17.042;2022-11-30T04:55:33;99390.06;;;1.77;97.05
60976;BME280;46849;48.154;17.042;2022-11-30T04:58:17;99398.28;;;1.95;96.63
60976;BME280;46849;48.154;17.042;2022-11-30T05:01:03;99393.16;;;1.93;95.68
60976;BME280;46849;48.154;17.042;2022-11-30T05:03:49;99400.75;;;2.00;95.59
60976;BME280;46849;48.154;17.042;2022-11-30T05:06:33;99397.03;;;2.12;95.15
60976;BME280;46849;48.154;17.042;2022-11-30T05:09:18;99392.78;;;2.09;94.87
60976;BME280;46849;48.154;17.042;2022-11-30T05:12:05;99397.94;;;2.09;94.75
60976;BME280;46849;48.154;17.042;2022-11-30T05:14:49;99402.81;;;2.23;93.66
60976;BME280;46849;48.154;17.042;2022-11-30T05:17:35;99400.22;;;2.23;93.58
60976;BME280;46849;48.154;17.042;2022-11-30T05:20:21;99400.09;;;2.28;93.75
60976;BME280;46849;48.154;17.042;2022-11-30T05:23:06;99407.13;;;2.22;92.60
60976;BME280;46849;48.154;17.042;2022-11-30T05:25:51;99409.50;;;2.30;92.64
60976;BME280;46849;48.154;17.042;2022-11-30T05:28:36;99408.66;;;2.31;92.20
60976;BME280;46849;48.154;17.042;2022-11-30T05:31:23;99406.25;;;2.24;92.25
60976;BME280;46849;48.154;17.042;2022-11-30T05:34:08;99407.75;;;2.32;91.91
60976;BME280;46849;48.154;17.042;2022-11-30T05:36:54;99414.91;;;2.57;96.20
60976;BME280;46849;48.154;17.042;2022-11-30T05:39:40;99409.59;;;2.64;94.01
60976;BME280;46849;48.154;17.042;2022-11-30T05:42:25;99412.28;;;2.59;92.20
60976;BME280;46849;48.154;17.042;2022-11-30T05:45:12;99413.97;;;2.60;91.91
60976;BME280;46849;48.154;17.042;2022-11-30T05:47:56;99411.66;;;2.49;91.78
60976;BME280;46849;48.154;17.042;2022-11-30T05:50:41;99407.22;;;2.54;92.12
60976;BME280;46849;48.154;17.042;2022-11-30T05:53:26;99412.16;;;2.64;90.49
60976;BME280;46849;48.154;17.042;2022-11-30T05:56:14;99425.69;;;2.75;89.65
60976;BME280;46849;48.154;17.042;2022-11-30T05:58:59;99422.41;;;2.68;88.72
60976;BME280;46849;48.154;17.042;2022-11-30T06:01:44;99421.38;;;2.76;89.94
60976;BME280;46849;48.154;17.042;2022-11-30T06:04:32;99426.09;;;2.93;89.47
60976;BME280;46849;48.154;17.042;2022-11-30T06:07:18;99429.38;;;3.31;95.15
60976;BME280;46849;48.154;17.042;2022-11-30T06:10:05;99435.19;;;3.40;90.97
60976;BME280;46849;48.154;17.042;2022-11-30T06:12:50;99432.19;;;3.24;90.91
60976;BME280;46849;48.154;17.042;2022-11-30T06:15:36;99432.47;;;3.13;89.94
60976;BME280;46849;48.154;17.042;2022-11-30T06:18:21;99426.09;;;2.93;89.32
60976;BME280;46849;48.154;17.042;2022-11-30T06:21:09;99434.91;;;2.86;88.56
60976;BME280;46849;48.154;17.042;2022-11-30T06:23:55;99434.72;;;2.93;88.62
60976;BME280;46849;48.154;17.042;2022-11-30T06:26:40;99432.47;;;3.13;91.03
60976;BME280;46849;48.154;17.042;2022-11-30T06:29:29;99433.75;;;3.29;88.50
60976;BME280;46849;48.154;17.042;2022-11-30T06:32:14;99432.22;;;3.22;87.25
60976;BME280;46849;48.154;17.042;2022-11-30T06:35:00;99438.94;;;3.29;88.41
60976;BME280;46849;48.154;17.042;2022-11-30T06:37:44;99438.53;;;3.43;89.69
60976;BME280;46849;48.154;17.042;2022-11-30T06:40:29;99450.50;;;3.49;87.02
60976;BME280;46849;48.154;17.042;2022-11-30T06:43:14;99452.81;;;3.59;87.77
60976;BME280;46849;48.154;17.042;2022-11-30T06:46:00;99454.44;;;3.61;86.64
60976;BME280;46849;48.154;17.042;2022-11-30T06:48:47;99452.63;;;3.65;86.68
60976;BME280;46849;48.154;17.042;2022-11-30T06:51:34;99450.66;;;3.73;87.23
60976;BME280;46849;48.154;17.042;2022-11-30T06:54:20;99458.88;;;3.88;88.02
60976;BME280;46849;48.154;17.042;2022-11-30T06:57:06;99459.06;;;3.81;86.43
60976;BME280;46849;48.154;17.042;2022-11-30T06:59:53;99456.63;;;3.77;86.16
60976;BME280;46849;48.154;17.042;2022-11-30T07:02:38;99456.38;;;3.85;85.31
60976;BME280;46849;48.154;17.042;2022-11-30T07:05:24;99461.31;;;3.64;82.67
60976;BME280;46849;48.154;17.042;2022-11-30T07:08:10;99458.44;;;3.73;85.78
60976;BME280;46849;48.154;17.042;2022-11-30T07:10:54;99464.31;;;3.80;85.01
60976;BME280;46849;48.154;17.042;2022-11-30T07:13:39;99463.16;;;3.89;85.06
60976;BME280;46849;48.154;17.042;2022-11-30T07:16:24;99461.72;;;3.80;85.76
60976;BME280;46849;48.154;17.042;2022-11-30T07:19:09;99462.34;;;3.88;86.70
60976;BME280;46849;48.154;17.042;2022-11-30T07:21:54;99462.97;;;3.95;88.12
60976;BME280;46849;48.154;17.042;2022-11-30T07:24:39;99463.06;;;3.92;88.88
60976;BME280;46849;48.154;17.042;2022-11-30T07:27:42;99459.50;;;3.96;88.78
60976;BME280;46849;48.154;17.042;2022-11-30T07:30:30;99456.91;;;3.96;88.21
60976;BME280;46849;48.154;17.042;2022-11-30T07:33:16;99449.00;;;4.01;87.82
60976;BME280;46849;48.154;17.042;2022-11-30T07:36:03;99446.44;;;3.99;88.14
60976;BME280;46849;48.154;17.042;2022-11-30T07:38:52;99451.50;;;4.04;89.22
60976;BME280;46849;48.154;17.042;2022-11-30T07:41:37;99448.59;;;4.13;89.53
60976;BME280;46849;48.154;17.042;2022-11-30T07:44:27;99452.34;;;4.04;88.45
60976;BME280;46849;48.154;17.042;2022-11-30T07:47:15;99444.53;;;4.06;89.72
60976;BME280;46849;48.154;17.042;2022-11-30T07:50:01;99443.63;;;4.07;90.62
60976;BME280;46849;48.154;17.042;2022-11-30T07:52:47;99446.91;;;4.12;90.48
60976;BME280;46849;48.154;17.042;2022-11-30T07:55:31;99459.84;;;4.14;89.30
60976;BME280;46849;48.154;17.042;2022-11-30T07:58:17;99456.06;;;4.24;88.28
60976;BME280;46849;48.154;17.042;2022-11-30T08:01:21;99463.59;;;4.32;90.48
60976;BME280;46849;48.154;17.042;2022-11-30T08:04:06;99449.03;;;4.28;92.13
60976;BME280;46849;48.154;17.042;2022-11-30T08:06:55;99453.44;;;4.26;92.42
60976;BME280;46849;48.154;17.042;2022-11-30T08:09:41;99454.06;;;4.32;92.04
60976;BME280;46849;48.154;17.042;2022-11-30T08:12:26;99456.47;;;4.39;91.34
60976;BME280;46849;48.154;17.042;2022-11-30T08:15:11;99453.84;;;4.40;92.03
60976;BME280;46849;48.154;17.042;2022-11-30T08:17:58;99464.38;;;4.36;92.67
60976;BME280;46849;48.154;17.042;2022-11-30T08:20:43;99460.22;;;4.30;93.87
60976;BME280;46849;48.154;17.042;2022-11-30T08:23:33;99466.09;;;4.35;94.36
60976;BME280;46849;48.154;17.042;2022-11-30T08:26:20;99467.53;;;4.44;93.84
60976;BME280;46849;48.154;17.042;2022-11-30T08:29:06;99465.03;;;4.41;93.98
60976;BME280;46849;48.154;17.042;2022-11-30T08:31:51;99475.16;;;4.50;93.89
60976;BME280;46849;48.154;17.042;2022-11-30T08:34:35;99473.38;;;4.51;92.77
60976;BME280;46849;48.154;17.042;2022-11-30T08:37:20;99471.34;;;4.61;92.03
60976;BME280;46849;48.154;17.042;2022-11-30T08:40:06;99475.59;;;4.63;92.25
60976;BME280;46849;48.154;17.042;2022-11-30T08:42:51;99467.88;;;4.62;92.57
60976;BME280;46849;48.154;17.042;2022-11-30T08:45:37;99479.06;;;4.62;92.39
60976;BME280;46849;48.154;17.042;2022-11-30T08:48:23;99479.78;;;4.67;92.51
60976;BME280;46849;48.154;17.042;2022-11-30T08:51:11;99483.78;;;4.78;91.78
60976;BME280;46849;48.154;17.042;2022-11-30T08:53:57;99483.88;;;4.75;91.38
60976;BME280;46849;48.154;17.042;2022-11-30T08:56:44;99485.38;;;4.82;91.43
60976;BME280;46849;48.154;17.042;2022-11-30T08:59:32;99487.66;;;4.91;90.55
60976;BME280;46849;48.154;17.042;2022-11-30T09:02:17;99487.72;;;5.15;90.32
60976;BME280;46849;48.154;17.042;2022-11-30T09:05:04;99484.34;;;5.13;89.66
60976;BME280;46849;48.154;17.042;2022-11-30T09:07:49;99487.41;;;5.25;90.08
60976;BME280;46849;48.154;17.042;2022-11-30T09:10:39;99490.47;;;5.36;88.97
60976;BME280;46849;48.154;17.042;2022-11-30T09:13:24;99494.88;;;5.34;89.64
60976;BME280;46849;48.154;17.042;2022-11-30T09:16:14;99498.53;;;5.28;88.69
60976;BME280;46849;48.154;17.042;2022-11-30T09:18:59;99502.13;;;5.24;88.58
60976;BME280;46849;48.154;17.042;2022-11-30T09:21:45;99495.78;;;5.33;87.22
60976;BME280;46849;48.154;17.042;2022-11-30T09:24:30;99495.72;;;5.35;87.01
60976;BME280;46849;48.154;17.042;2022-11-30T09:27:16;99491.56;;;5.29;86.84
60976;BME280;46849;48.154;17.042;2022-11-30T09:30:04;99489.31;;;5.20;87.36
60976;BME280;46849;48.154;17.042;2022-11-30T09:32:49;99484.88;;;4.96;87.11
60976;BME280;46849;48.154;17.042;2022-11-30T09:35:33;99491.31;;;4.86;88.25
60976;BME280;46849;48.154;17.042;2022-11-30T09:38:19;99494.72;;;4.88;88.52
60976;BME280;46849;48.154;17.042;2022-11-30T09:41:12;99491.09;;;4.92;87.90
60976;BME280;46849;48.154;17.042;2022-11-30T09:50:14;99488.38;;;5.22;87.39
60976;BME280;46849;48.154;17.042;2022-11-30T09:53:04;99491.28;;;5.38;86.57
60976;BME280;46849;48.154;17.042;2022-11-30T09:55:53;99485.69;;;5.49;86.14
60976;BME280;46849;48.154;17.042;2022-11-30T09:58:56;99485.34;;;5.59;85.86
60976;BME280;46849;48.154;17.042;2022-11-30T10:01:44;99482.84;;;5.55;86.29
60976;BME280;46849;48.154;17.042;2022-11-30T10:04:32;99487.00;;;5.61;86.64
60976;BME280;46849;48.154;17.042;2022-11-30T10:14:14;99489.34;;;5.43;88.50
60976;BME280;46849;48.154;17.042;2022-11-30T10:23:44;99472.09;;;5.17;88.79
60976;BME280;46849;48.154;17.042;2022-11-30T10:26:34;99464.94;;;5.24;88.31
60976;BME280;46849;48.154;17.042;2022-11-30T10:29:39;99462.69;;;5.13;88.34
60976;BME280;46849;48.154;17.042;2022-11-30T10:32:32;99458.31;;;5.39;89.76
60976;BME280;46849;48.154;17.042;2022-11-30T10:35:36;99451.22;;;5.44;89.37
60976;BME280;46849;48.154;17.042;2022-11-30T10:38:30;99435.00;;;5.37;89.46
60976;BME280;46849;48.154;17.042;2022-11-30T10:41:21;99426.25;;;5.40;89.94
60976;BME280;46849;48.154;17.042;2022-11-30T10:44:18;99427.31;;;5.34;89.24
60976;BME280;46849;48.154;17.042;2022-11-30T10:47:27;99439.38;;;5.37;89.26
60976;BME280;46849;48.154;17.042;2022-11-30T10:50:15;99437.22;;;5.48;89.65
60976;BME280;46849;48.154;17.042;2022-11-30T10:53:03;99436.63;;;5.64;89.63
60976;BME280;46849;48.154;17.042;2022-11-30T10:56:07;99437.88;;;5.53;89.78
60976;BME280;46849;48.154;17.042;2022-11-30T10:59:02;99438.78;;;5.28;90.91
60976;BME280;46849;48.154;17.042;2022-11-30T11:01:48;99441.72;;;5.43;91.01
60976;BME280;46849;48.154;17.042;2022-11-30T11:04:32;99453.22;;;5.61;90.22
60976;BME280;46849;48.154;17.042;2022-11-30T11:07:18;99458.50;;;5.58;89.76
60976;BME280;46849;48.154;17.042;2022-11-30T11:10:12;99447.84;;;5.66;89.22
60976;BME280;46849;48.154;17.042;2022-11-30T11:12:59;99450.25;;;5.71;89.22
60976;BME280;46849;48.154;17.042;2022-11-30T11:16:10;99444.97;;;5.50;89.31
60976;BME280;46849;48.154;17.042;2022-11-30T11:18:56;99443.34;;;5.46;89.41
60976;BME280;46849;48.154;17.042;2022-11-30T11:21:50;99441.16;;;5.59;89.57
60976;BME280;46849;48.154;17.042;2022-11-30T11:24:36;99429.50;;;5.69;89.29
60976;BME280;46849;48.154;17.042;2022-11-30T11:27:31;99431.22;;;5.92;88.41
60976;BME280;46849;48.154;17.042;2022-11-30T11:30:40;99428.75;;;5.89;88.67
60976;BME280;46849;48.154;17.042;2022-11-30T11:33:27;99441.41;;;5.75;88.86
60976;BME280;46849;48.154;17.042;2022-11-30T11:36:19;99429.69;;;5.64;89.57
60976;BME280;46849;48.154;17.042;2022-11-30T11:39:24;99440.75;;;5.46;89.77
60976;BME280;46849;48.154;17.042;2022-11-30T11:42:17;99436.75;;;5.37;89.86
60976;BME280;46849;48.154;17.042;2022-11-30T11:45:04;99429.78;;;5.37;90.51
60976;BME280;46849;48.154;17.042;2022-11-30T11:48:03;99422.75;;;5.41;90.29
60976;BME280;46849;48.154;17.042;2022-11-30T11:51:00;99413.25;;;5.40;90.01
60976;BME280;46849;48.154;17.042;2022-11-30T11:53:51;99421.94;;;5.39;91.10
60976;BME280;46849;48.154;17.042;2022-11-30T11:56:37;99409.16;;;5.57;90.20
60976;BME280;46849;48.154;17.042;2022-11-30T12:05:35;99427.31;;;5.58;90.18
60976;BME280;46849;48.154;17.042;2022-11-30T12:08:35;99425.72;;;5.54;89.62
60976;BME280;46849;48.154;17.042;2022-11-30T12:11:36;99419.72;;;5.52;91.01
60976;BME280;46849;48.154;17.042;2022-11-30T12:14:24;99420.34;;;5.59;89.81
60976;BME280;46849;48.154;17.042;2022-11-30T12:20:27;99418.34;;;5.43;90.53
60976;BME280;46849;48.154;17.042;2022-11-30T12:26:38;99416.75;;;5.63;90.65
60976;BME280;46849;48.154;17.042;2022-11-30T12:33:10;99402.72;;;5.67;90.22
60976;BME280;46849;48.154;17.042;2022-11-30T12:36:10;99403.69;;;5.64;90.59
60976;BME280;46849;48.154;17.042;2022-11-30T12:38:57;99407.91;;;5.67;90.02
60976;BME280;46849;48.154;17.042;2022-11-30T12:41:49;99401.97;;;5.63;90.28
60976;BME280;46849;48.154;17.042;2022-11-30T12:54:04;99392.50;;;5.62;90.58
60976;BME280;46849;48.154;17.042;2022-11-30T13:00:20;99389.84;;;5.64;90.85
60976;BME280;46849;48.154;17.042;2022-11-30T13:06:00;99392.56;;;5.61;91.41
60976;BME280;46849;48.154;17.042;2022-11-30T13:09:00;99388.84;;;5.44;91.62
60976;BME280;46849;48.154;17.042;2022-11-30T13:11:51;99396.13;;;5.34;92.13
60976;BME280;46849;48.154;17.042;2022-11-30T13:14:39;99390.31;;;5.27;92.09
60976;BME280;46849;48.154;17.042;2022-11-30T13:17:26;99386.75;;;5.30;92.93
60976;BME280;46849;48.154;17.042;2022-11-30T13:20:37;99380.09;;;5.23;92.90
60976;BME280;46849;48.154;17.042;2022-11-30T13:27:09;99384.22;;;5.28;93.32
60976;BME280;46849;48.154;17.042;2022-11-30T13:30:14;99391.16;;;5.28;93.75
60976;BME280;46849;48.154;17.042;2022-11-30T13:44:43;99374.50;;;5.34;92.93
60976;BME280;46849;48.154;17.042;2022-11-30T13:47:32;99373.94;;;5.25;93.10
60976;BME280;46849;48.154;17.042;2022-11-30T13:50:35;99377.59;;;5.20;93.75
60976;BME280;46849;48.154;17.042;2022-11-30T13:53:31;99380.72;;;5.29;93.92
60976;BME280;46849;48.154;17.042;2022-11-30T14:05:33;99378.56;;;5.41;92.56
60976;BME280;46849;48.154;17.042;2022-11-30T14:11:36;99375.28;;;5.36;93.40
60976;BME280;46849;48.154;17.042;2022-11-30T14:14:44;99367.13;;;5.45;91.82
60976;BME280;46849;48.154;17.042;2022-11-30T14:17:32;99374.97;;;5.43;91.47
60976;BME280;46849;48.154;17.042;2022-11-30T14:20:19;99377.88;;;5.36;91.88
60976;BME280;46849;48.154;17.042;2022-11-30T14:23:09;99371.56;;;5.43;93.21
60976;BME280;46849;48.154;17.042;2022-11-30T14:26:00;99368.91;;;5.45;92.67
60976;BME280;46849;48.154;17.042;2022-11-30T14:34:44;99352.94;;;5.32;93.23
60976;BME280;46849;48.154;17.042;2022-11-30T14:37:43;99359.13;;;5.27;93.62
60976;BME280;46849;48.154;17.042;2022-11-30T14:40:29;99367.66;;;5.07;93.26
60976;BME280;46849;48.154;17.042;2022-11-30T14:43:17;99368.25;;;5.15;94.01
60976;BME280;46849;48.154;17.042;2022-11-30T14:46:04;99367.59;;;5.09;94.56
60976;BME280;46849;48.154;17.042;2022-11-30T14:49:13;99361.38;;;4.89;95.12
60976;BME280;46849;48.154;17.042;2022-11-30T14:52:04;99362.44;;;4.83;95.92
60976;BME280;46849;48.154;17.042;2022-11-30T14:55:07;99365.06;;;4.81;96.19
60976;BME280;46849;48.154;17.042;2022-11-30T15:00:57;99360.16;;;4.74;95.87
60976;BME280;46849;48.154;17.042;2022-11-30T15:03:43;99362.91;;;4.69;95.83
60976;BME280;46849;48.154;17.042;2022-11-30T15:06:31;99362.88;;;4.71;95.93
60976;BME280;46849;48.154;17.042;2022-11-30T15:09:20;99364.56;;;4.72;95.90
60976;BME280;46849;48.154;17.042;2022-11-30T15:12:17;99374.25;;;4.66;96.39
60976;BME280;46849;48.154;17.042;2022-11-30T15:15:22;99375.25;;;4.62;96.84
60976;BME280;46849;48.154;17.042;2022-11-30T15:18:13;99369.84;;;4.68;100.00
60976;BME280;46849;48.154;17.042;2022-11-30T15:21:20;99373.13;;;4.99;100.00
60976;BME280;46849;48.154;17.042;2022-11-30T15:24:07;99377.28;;;4.79;100.00
60976;BME280;46849;48.154;17.042;2022-11-30T15:29:57;99380.13;;;4.46;100.00
60976;BME280;46849;48.154;17.042;2022-11-30T15:32:48;99369.47;;;4.54;100.00
60976;BME280;46849;48.154;17.042;2022-11-30T15:35:36;99368.50;;;4.31;100.00
60976;BME280;46849;48.154;17.042;2022-11-30T15:38:27;99367.38;;;4.13;100.00
60976;BME280;46849;48.154;17.042;2022-11-30T15:44:04;99377.09;;;4.59;100.00
60976;BME280;46849;48.154;17.042;2022-11-30T15:46:59;99376.84;;;4.66;100.00
60976;BME280;46849;48.154;17.042;2022-11-30T15:49:51;99384.94;;;4.57;100.00
60976;BME280;46849;48.154;17.042;2022-11-30T15:52:42;99382.59;;;4.49;100.00
60976;BME280;46849;48.154;17.042;2022-11-30T15:55:52;99378.22;;;4.51;100.00
60976;BME280;46849;48.154;17.042;2022-11-30T15:58:39;99376.00;;;4.40;100.00
60976;BME280;46849;48.154;17.042;2022-11-30T16:01:53;99377.72;;;4.40;100.00
60976;BME280;46849;48.154;17.042;2022-11-30T16:10:38;99385.63;;;4.62;100.00
60976;BME280;46849;48.154;17.042;2022-11-30T16:13:28;99391.25;;;4.50;100.00
60976;BME280;46849;48.154;17.042;2022-11-30T16:16:18;99386.88;;;4.52;100.00
60976;BME280;46849;48.154;17.042;2022-11-30T16:19:05;99391.31;;;4.48;100.00
60976;BME280;46849;48.154;17.042;2022-11-30T16:21:49;99391.63;;;4.39;100.00
60976;BME280;46849;48.154;17.042;2022-11-30T16:24:37;99393.34;;;4.38;100.00
60976;BME280;46849;48.154;17.042;2022-11-30T16:27:23;99387.19;;;4.41;100.00
60976;BME280;46849;48.154;17.042;2022-11-30T16:32:57;99383.03;;;4.37;100.00
60976;BME280;46849;48.154;17.042;2022-11-30T16:38:52;99388.69;;;4.23;100.00
60976;BME280;46849;48.154;17.042;2022-11-30T16:41:41;99382.59;;;4.49;100.00
60976;BME280;46849;48.154;17.042;2022-11-30T16:44:27;99382.25;;;4.60;100.00
60976;BME280;46849;48.154;17.042;2022-11-30T16:47:12;99386.44;;;4.64;99.26
60976;BME280;46849;48.154;17.042;2022-11-30T16:49:59;99380.06;;;4.48;100.00
60976;BME280;46849;48.154;17.042;2022-11-30T16:52:44;99386.22;;;4.71;100.00